createdAt,value
2017-09-17T11:03:55.978Z,2.73
2017-09-17T11:06:23.427Z,1.40
2017-09-17T11:08:50.897Z,1.50
2017-09-17T11:11:18.366Z,1.70
2017-09-17T11:13:45.872Z,1.57
2017-09-17T11:16:13.316Z,1.53
2017-09-17T11:18:40.785Z,1.97
2017-09-17T11:21:08.260Z,1.77
2017-09-17T11:23:35.760Z,1.57
2017-09-17T11:26:03.240Z,1.40
2017-09-17T11:28:30.698Z,1.50
2017-09-17T11:30:58.185Z,1.60
2017-09-17T11:33:25.727Z,1.60
2017-09-17T11:35:53.212Z,1.40
2017-09-17T11:38:20.669Z,1.53
2017-09-17T11:40:48.140Z,1.57
2017-09-17T11:43:15.613Z,1.47
2017-09-17T11:45:43.124Z,1.67
2017-09-17T11:48:10.577Z,1.33
2017-09-17T11:50:38.137Z,1.37
2017-09-17T11:53:05.653Z,1.40
2017-09-17T11:55:33.144Z,1.70
2017-09-17T11:58:00.655Z,2.00
2017-09-17T12:00:28.109Z,1.63
2017-09-17T12:02:55.593Z,1.57
2017-09-17T12:05:23.453Z,1.43
2017-09-17T12:07:50.957Z,1.30
2017-09-17T12:10:18.506Z,1.47
2017-09-17T12:12:46.133Z,1.80
2017-09-17T12:15:13.588Z,1.53
2017-09-17T12:17:41.077Z,1.30
2017-09-17T12:20:08.555Z,1.37
2017-09-17T12:22:36.018Z,1.20
2017-09-17T12:25:03.490Z,1.20
2017-09-17T12:27:30.961Z,1.53
2017-09-17T12:29:58.502Z,1.40
2017-09-17T12:32:26.037Z,1.33
2017-09-17T12:34:53.539Z,1.30
2017-09-17T12:37:21.017Z,1.10
2017-09-17T12:39:48.658Z,1.30
2017-09-17T12:42:16.162Z,1.33
2017-09-17T12:44:43.642Z,1.60
2017-09-17T12:47:11.135Z,1.30
2017-09-17T12:49:38.602Z,1.40
2017-09-17T12:52:06.121Z,1.77
2017-09-17T12:54:33.655Z,1.57
2017-09-17T12:57:01.151Z,1.53
2017-09-17T12:59:28.616Z,1.33
2017-09-17T13:01:56.106Z,1.33
2017-09-17T13:04:23.566Z,1.30
2017-09-17T13:06:51.052Z,1.30
2017-09-17T13:09:18.515Z,1.10
2017-09-17T13:11:46.083Z,1.27
2017-09-17T13:14:13.601Z,1.20
2017-09-17T13:16:41.121Z,1.30
2017-09-17T13:19:08.581Z,1.20
2017-09-17T13:21:36.133Z,1.30
2017-09-17T13:24:03.667Z,1.37
2017-09-17T13:26:31.122Z,1.13
2017-09-17T13:28:58.657Z,1.20
2017-09-17T13:31:27.167Z,1.20
2017-09-17T13:33:54.667Z,1.73
2017-09-17T13:36:22.134Z,1.33
2017-09-17T13:38:49.644Z,1.50
2017-09-17T13:41:17.125Z,2.03
2017-09-17T13:43:44.604Z,1.40
2017-09-17T13:46:12.084Z,1.43
2017-09-17T13:48:39.564Z,1.50
2017-09-17T13:51:07.061Z,1.80
2017-09-17T13:53:34.545Z,1.53
2017-09-17T13:56:02.038Z,1.37
2017-09-17T13:58:29.502Z,1.50
2017-09-17T14:00:56.974Z,1.77
2017-09-17T14:06:44.413Z,1.50
2017-09-17T14:09:14.387Z,1.60
2017-09-17T14:11:41.878Z,1.50
2017-09-17T14:14:09.351Z,1.80
2017-09-17T14:16:36.834Z,1.50
2017-09-17T14:19:04.309Z,1.50
2017-09-17T14:21:31.805Z,1.50
2017-09-17T14:23:59.284Z,1.23
2017-09-17T14:26:26.768Z,1.10
2017-09-17T14:28:54.271Z,1.23
2017-09-17T14:31:21.827Z,1.30
2017-09-17T14:33:49.322Z,1.27
2017-09-17T14:36:16.976Z,1.30
2017-09-17T14:38:44.435Z,1.40
2017-09-17T14:41:11.913Z,1.20
2017-09-17T14:43:39.372Z,1.30
2017-09-17T14:46:06.869Z,1.10
2017-09-17T14:48:34.328Z,2.23
2017-09-17T14:51:01.831Z,1.43
2017-09-17T14:53:29.340Z,1.30
2017-09-17T14:55:56.832Z,1.40
2017-09-17T14:58:24.296Z,1.60
2017-09-17T15:00:51.779Z,1.40
2017-09-17T15:03:19.244Z,1.53
2017-09-17T15:05:46.736Z,1.10
2017-09-17T15:08:14.206Z,1.40
2017-09-17T15:10:41.697Z,1.20
2017-09-17T15:13:09.157Z,1.07
2017-09-17T15:15:36.647Z,1.33
2017-09-17T15:18:04.105Z,1.10
2017-09-17T15:20:31.578Z,1.17
2017-09-17T15:22:59.072Z,1.30
2017-09-17T15:25:26.558Z,1.37
2017-09-17T15:27:54.052Z,1.63
2017-09-17T15:30:21.551Z,1.70
2017-09-17T15:32:49.020Z,1.73
2017-09-17T15:35:16.528Z,1.27
2017-09-17T15:37:44.015Z,1.50
2017-09-17T15:40:11.507Z,1.00
2017-09-17T15:42:38.983Z,1.60
2017-09-17T15:45:06.469Z,1.90
2017-09-17T15:47:33.947Z,1.40
2017-09-17T15:50:01.456Z,1.40
2017-09-17T15:52:28.907Z,1.50
2017-09-17T15:54:56.421Z,1.40
2017-09-17T15:57:23.876Z,1.30
2017-09-17T15:59:51.357Z,1.40
2017-09-17T16:02:18.818Z,1.40
2017-09-17T16:04:46.308Z,1.30
2017-09-17T16:07:13.822Z,1.30
2017-09-17T16:09:41.286Z,1.50
2017-09-17T16:12:08.791Z,1.63
2017-09-17T16:14:36.282Z,2.43
2017-09-17T16:17:03.761Z,2.97
2017-09-17T16:19:31.219Z,2.20
2017-09-17T16:21:58.702Z,1.83
2017-09-17T16:24:26.185Z,1.70
2017-09-17T16:26:53.665Z,1.90
2017-09-17T16:29:21.124Z,2.10
2017-09-17T16:31:48.647Z,1.67
2017-09-17T16:34:16.135Z,1.77
2017-09-17T16:36:43.582Z,1.63
2017-09-17T16:39:11.063Z,1.33
2017-09-17T16:41:38.571Z,1.60
2017-09-17T16:44:06.034Z,1.80
2017-09-17T16:46:33.534Z,1.60
2017-09-17T16:49:01.035Z,1.37
2017-09-17T16:51:29.260Z,1.80
2017-09-17T16:53:56.711Z,1.70
2017-09-17T16:56:24.219Z,1.60
2017-09-17T16:58:51.706Z,1.30
2017-09-17T17:01:19.195Z,1.40
2017-09-17T17:03:46.651Z,1.40
2017-09-17T17:06:14.151Z,1.20
2017-09-17T17:08:41.614Z,1.30
2017-09-17T17:11:09.071Z,1.77
2017-09-17T17:13:36.551Z,1.10
2017-09-17T17:16:04.057Z,1.30
2017-09-17T17:18:31.666Z,1.50
2017-09-17T17:20:59.134Z,1.40
2017-09-17T17:23:26.593Z,1.50
2017-09-17T17:25:54.077Z,1.80
2017-09-17T17:28:21.538Z,1.80
2017-09-17T17:30:49.028Z,1.90
2017-09-17T17:33:16.545Z,1.67
2017-09-17T17:35:44.044Z,1.93
2017-09-17T17:38:11.518Z,1.90
2017-09-17T17:40:38.993Z,1.90
2017-09-17T17:43:06.469Z,1.70
2017-09-17T17:45:33.929Z,1.57
2017-09-17T17:48:01.442Z,1.60
2017-09-17T17:50:28.908Z,1.53
2017-09-17T17:52:56.403Z,1.63
2017-09-17T17:55:23.890Z,2.63
2017-09-17T17:57:51.391Z,1.80
2017-09-17T18:00:18.882Z,1.93
2017-09-17T18:02:46.363Z,1.73
2017-09-17T18:05:14.691Z,6.07
2017-09-17T18:07:43.122Z,3.50
2017-09-17T18:10:10.667Z,1.70
2017-09-17T18:12:38.138Z,1.80
2017-09-17T18:15:05.754Z,2.10
2017-09-17T18:17:33.254Z,2.07
2017-09-17T18:20:00.710Z,2.20
2017-09-17T18:22:28.209Z,2.10
2017-09-17T18:24:55.706Z,1.90
2017-09-17T18:27:23.163Z,2.17
2017-09-17T18:29:50.646Z,2.50
2017-09-17T18:32:18.165Z,2.40
2017-09-17T18:34:46.543Z,1.83
2017-09-17T18:37:14.076Z,2.00
2017-09-17T18:39:41.559Z,1.90
2017-09-17T18:42:09.172Z,2.10
2017-09-17T18:44:36.680Z,2.40
2017-09-17T18:47:04.171Z,2.33
2017-09-17T18:49:31.731Z,2.57
2017-09-17T18:51:59.206Z,2.50
2017-09-17T18:54:26.945Z,2.80
2017-09-17T18:56:54.444Z,3.43
2017-09-17T18:59:21.952Z,4.30
2017-09-17T19:01:49.456Z,4.40
2017-09-17T19:04:16.968Z,3.53
2017-09-17T19:06:44.477Z,3.67
2017-09-17T19:09:11.955Z,3.23
2017-09-17T19:11:39.477Z,3.07
2017-09-17T19:14:07.012Z,4.43
2017-09-17T19:16:34.524Z,5.47
2017-09-17T19:19:02.054Z,3.83
2017-09-17T19:21:29.589Z,2.70
2017-09-17T19:23:57.066Z,2.93
2017-09-17T19:26:24.593Z,2.50
2017-09-17T19:28:52.104Z,3.40
2017-09-17T19:31:19.684Z,2.80
2017-09-17T19:33:47.202Z,2.63
2017-09-17T19:36:14.855Z,2.30
2017-09-17T19:38:42.377Z,2.47
2017-09-17T19:41:10.753Z,2.30
2017-09-17T19:43:38.285Z,2.80
2017-09-17T19:46:05.778Z,2.13
2017-09-17T19:48:33.370Z,2.10
2017-09-17T19:51:00.903Z,2.00
2017-09-17T19:53:28.469Z,2.43
2017-09-17T19:55:55.952Z,2.40
2017-09-17T19:58:23.537Z,2.07
2017-09-17T20:00:51.048Z,2.07
2017-09-17T20:03:18.563Z,4.10
2017-09-17T20:05:46.135Z,3.70
2017-09-17T20:08:13.608Z,3.13
2017-09-17T20:10:41.102Z,3.07
2017-09-17T20:13:08.576Z,3.53
2017-09-17T20:15:36.097Z,3.40
2017-09-17T20:18:03.606Z,3.17
2017-09-17T20:20:31.109Z,2.87
2017-09-17T20:22:58.654Z,3.03
2017-09-17T20:25:26.229Z,3.13
2017-09-17T20:27:53.721Z,2.10
2017-09-17T20:30:21.189Z,2.30
2017-09-17T20:32:48.682Z,2.30
2017-09-17T20:35:16.158Z,2.10
2017-09-17T20:37:43.660Z,2.20
2017-09-17T20:40:11.128Z,2.50
2017-09-17T20:42:38.630Z,2.90
2017-09-17T20:45:06.096Z,2.27
2017-09-17T20:47:33.608Z,2.70
2017-09-17T20:50:01.068Z,2.80
2017-09-17T20:52:28.557Z,3.70
2017-09-17T20:54:56.061Z,2.00
2017-09-17T20:57:23.538Z,2.13
2017-09-17T20:59:51.065Z,2.10
2017-09-17T21:02:20.017Z,1.80
2017-09-17T21:04:47.517Z,1.90
2017-09-17T21:07:14.987Z,2.17
2017-09-17T21:09:42.495Z,1.67
2017-09-17T21:12:09.956Z,1.80
2017-09-17T21:14:37.424Z,2.70
2017-09-17T21:17:04.917Z,1.90
2017-09-17T21:19:32.383Z,1.93
2017-09-17T21:21:59.904Z,2.33
2017-09-17T21:24:27.361Z,2.30
2017-09-17T21:26:54.881Z,2.30
2017-09-17T21:29:22.337Z,2.07
2017-09-17T21:31:49.834Z,2.30
2017-09-17T21:34:17.328Z,2.63
2017-09-17T21:36:44.794Z,2.30
2017-09-17T21:39:12.273Z,2.67
2017-09-17T21:41:39.776Z,2.53
2017-09-17T21:44:07.373Z,2.57
2017-09-17T21:46:34.836Z,2.60
2017-09-17T21:49:02.320Z,2.83
2017-09-17T21:51:30.978Z,2.80
2017-09-17T21:53:58.438Z,2.33
2017-09-17T21:56:25.937Z,2.20
2017-09-17T21:58:53.402Z,2.30
2017-09-17T22:01:20.893Z,2.20
2017-09-17T22:03:48.365Z,2.10
2017-09-17T22:06:15.859Z,2.37
2017-09-17T22:08:43.344Z,2.57
2017-09-17T22:11:10.825Z,2.90
2017-09-17T22:13:39.024Z,3.37
2017-09-17T22:16:06.501Z,3.27
2017-09-17T22:18:33.977Z,3.20
2017-09-17T22:21:01.473Z,2.90
2017-09-17T22:23:28.968Z,3.40
2017-09-17T22:25:56.513Z,3.33
2017-09-17T22:28:24.013Z,3.30
2017-09-17T22:30:51.475Z,2.70
2017-09-17T22:33:18.949Z,5.53
2017-09-17T22:35:46.461Z,4.30
2017-09-17T22:38:13.975Z,4.47
2017-09-17T22:40:41.432Z,3.50
2017-09-17T22:43:08.922Z,3.40
2017-09-17T22:45:36.383Z,3.87
2017-09-17T22:48:03.907Z,3.50
2017-09-17T22:50:31.366Z,3.23
2017-09-17T22:52:58.853Z,3.80
2017-09-17T22:55:26.357Z,3.83
2017-09-17T22:57:53.833Z,3.73
2017-09-17T23:00:21.346Z,3.33
2017-09-17T23:02:48.850Z,3.60
2017-09-17T23:05:16.366Z,3.53
2017-09-17T23:07:44.425Z,3.57
2017-09-17T23:10:11.894Z,3.57
2017-09-17T23:12:39.350Z,4.03
2017-09-17T23:15:06.850Z,4.47
2017-09-17T23:17:34.336Z,3.40
2017-09-17T23:20:01.870Z,3.10
2017-09-17T23:22:29.356Z,3.43
2017-09-17T23:24:56.843Z,3.43
2017-09-17T23:27:24.329Z,3.53
2017-09-17T23:29:51.812Z,3.10
2017-09-17T23:32:19.323Z,3.27
2017-09-17T23:34:46.789Z,3.50
2017-09-17T23:37:14.295Z,3.60
2017-09-17T23:39:41.761Z,3.50
2017-09-17T23:42:09.614Z,3.70
2017-09-17T23:44:37.077Z,3.30
2017-09-17T23:47:04.530Z,3.67
2017-09-17T23:49:32.034Z,3.50
2017-09-17T23:51:59.512Z,3.63
2017-09-17T23:54:27.016Z,3.93
2017-09-17T23:56:54.493Z,3.50
2017-09-17T23:59:22.114Z,3.53
